Погода Эшуна 2 недели

Пернамбуку, Бразилия

22 июля-03 августа
  • 22июля
    Сегодня
    +17°
    +28°
    Ясно и безоблачно
    ВремяПогодаТемператураВлажностьДавлениеВетер, м/сВероятность осадков
    00:00Небольшая облачность+19°C77 %692 мм2.2 м/с5 %
    03:00Небольшая облачность+18°C86 %692 мм2.0 м/с5 %
    06:00Облачно с прояснениями+17°C94 %692 мм2.0 м/с5 %
    09:00Небольшая облачность+21°C70 %694 мм5.7 м/с20 %
    12:00Ясно и безоблачно+25°C49 %693 мм5.6 м/с5 %
    15:00Ясно и безоблачно+27°C39 %692 мм5.0 м/с5 %
    18:00Ясно и безоблачно+24°C52 %692 мм3.5 м/с5 %
    21:00Ясно и безоблачно+21°C70 %693 мм2.7 м/с2 %
  • 23июля
    Вторник
    +18°
    +27°
    Ясно и безоблачно
    ВремяПогодаТемператураВлажностьДавлениеВетер, м/сВероятность осадков
    00:00Практически безоблачно+20°C84 %693 мм2.8 м/с5 %
    03:00Практически безоблачно+19°C91 %692 мм3.0 м/с3 %
    06:00Небольшая облачность+18°C96 %693 мм2.6 м/с3 %
    09:00Практически безоблачно+21°C71 %695 мм5.7 м/с14 %
    12:00Ясно и безоблачно+25°C50 %694 мм5.9 м/с5 %
    15:00Ясно и безоблачно+27°C46 %692 мм5.6 м/с5 %
    18:00Ясно и безоблачно+24°C57 %692 мм4.0 м/с5 %
    21:00Ясно и безоблачно+21°C69 %694 мм3.4 м/с5 %
  • 24июля
    Среда
    +15°
    +27°
    Ясно и безоблачно
    ВремяПогодаТемператураВлажностьДавлениеВетер, м/сВероятность осадков
    00:00Практически безоблачно+20°C87 %693 мм3.2 м/с5 %
    03:00Пасмурно, ливень+19°C94 %693 мм4.4 м/с24 %
    06:00Пасмурно, сплошная облачность+18°C93 %693 мм4.3 м/с27 %
    09:00Облачно с прояснениями+21°C73 %695 мм6.5 м/с43 %
    12:00Небольшая облачность+25°C50 %694 мм6.2 м/с7 %
    15:00Ясно и безоблачно+26°C47 %693 мм5.2 м/с5 %
    18:00Ясно и безоблачно+24°C57 %693 мм5.0 м/с5 %
    21:00Ясно и безоблачно+21°C67 %694 мм4.1 м/с5 %
  • 25июля
    Четверг
    +17°
    +28°
    Ясно и безоблачно
    ВремяПогодаТемператураВлажностьДавлениеВетер, м/сВероятность осадков
    00:00Ясно и безоблачно+20°C72 %694 мм4.5 м/с5 %
    03:00Ясно и безоблачно+17°C85 %693 мм2.4 м/с5 %
    06:00Ясно и безоблачно+16°C91 %693 мм2.1 м/с9 %
    09:00Облачно с прояснениями+22°C63 %695 мм6.3 м/с23 %
    12:00Ясно и безоблачно+26°C41 %694 мм6.5 м/с5 %
    15:00Ясно и безоблачно+28°C35 %692 мм5.6 м/с5 %
    18:00Ясно и безоблачно+24°C51 %692 мм4.5 м/с5 %
    21:00Ясно и безоблачно+21°C62 %693 мм2.8 м/с5 %
Мы используем cookies
Соглашаюсь